createdAt,value
2023-02-21T00:01:42.513Z,1.80
2023-02-21T00:04:33.123Z,1.80
2023-02-21T00:07:27.516Z,1.02
2023-02-21T00:10:16.145Z,1.20
2023-02-21T00:13:07.014Z,0.70
2023-02-21T00:15:57.198Z,0.95
2023-02-21T00:18:44.920Z,2.33
2023-02-21T00:24:47.570Z,0.95
2023-02-21T00:27:38.144Z,1.17
2023-02-21T00:30:26.709Z,1.52
2023-02-21T00:33:15.578Z,1.45
2023-02-21T00:36:04.201Z,3.33
2023-02-21T00:38:52.593Z,2.30
2023-02-21T00:41:41.676Z,0.70
2023-02-21T00:44:30.308Z,1.13
2023-02-21T00:47:18.130Z,0.68
2023-02-21T00:50:12.692Z,2.78
2023-02-21T00:53:03.326Z,0.80
2023-02-21T00:55:50.653Z,1.58
2023-02-21T00:58:41.972Z,1.42
2023-02-21T01:01:29.167Z,1.08
2023-02-21T01:04:40.166Z,1.65
2023-02-21T01:07:28.691Z,1.38
2023-02-21T01:10:47.559Z,0.75
2023-02-21T01:13:55.068Z,1.23
2023-02-21T01:19:47.027Z,4.35
2023-02-21T01:22:35.433Z,0.60
2023-02-21T01:25:26.313Z,1.73
2023-02-21T01:28:21.563Z,1.02
2023-02-21T01:31:09.028Z,1.63
2023-02-21T01:34:00.522Z,5.63
2023-02-21T01:36:47.897Z,2.20
2023-02-21T01:39:35.243Z,1.77
2023-02-21T01:45:28.973Z,3.47
2023-02-21T01:48:16.413Z,0.70
2023-02-21T01:51:03.850Z,0.55
2023-02-21T01:53:51.314Z,1.42
2023-02-21T01:56:39.011Z,1.02
2023-02-21T01:59:26.518Z,0.75
2023-02-21T02:03:03.968Z,0.85
2023-02-21T02:06:02.730Z,0.45
2023-02-21T02:08:51.707Z,3.80
2023-02-21T02:12:11.980Z,0.50
2023-02-21T02:15:11.200Z,1.65
2023-02-21T02:18:11.321Z,0.82
2023-02-21T02:21:01.603Z,0.80
2023-02-21T02:24:14.537Z,1.60
2023-02-21T02:27:20.956Z,1.27
2023-02-21T02:30:19.152Z,4.22
2023-02-21T02:33:05.952Z,2.70
2023-02-21T02:36:15.448Z,0.90
2023-02-21T02:39:15.705Z,1.42
2023-02-21T02:41:55.407Z,1.00
2023-02-21T02:44:50.652Z,0.60
2023-02-21T02:47:30.774Z,0.60
2023-02-21T02:50:16.012Z,0.65
2023-02-21T02:53:10.932Z,0.50
2023-02-21T02:59:32.198Z,1.05
2023-02-21T03:03:00.271Z,0.88
2023-02-21T03:05:53.474Z,1.50
2023-02-21T03:08:33.697Z,0.95
2023-02-21T03:11:32.762Z,0.52
2023-02-21T03:14:25.768Z,1.58
2023-02-21T03:17:06.306Z,0.77
2023-02-21T03:19:50.737Z,0.50
2023-02-21T03:22:27.403Z,0.50
2023-02-21T03:25:00.304Z,0.85
2023-02-21T03:27:37.287Z,0.80
2023-02-21T03:30:36.504Z,0.60
2023-02-21T03:33:09.734Z,0.98
2023-02-21T03:35:48.950Z,0.50
2023-02-21T03:38:20.151Z,0.60
2023-02-21T03:40:59.601Z,0.50
2023-02-21T03:43:38.030Z,0.50
2023-02-21T03:46:12.329Z,0.55
2023-02-21T03:48:42.024Z,0.50
2023-02-21T03:51:19.542Z,0.50
2023-02-21T03:53:57.569Z,0.50
2023-02-21T03:56:41.986Z,1.98
2023-02-21T03:59:24.269Z,0.57
2023-02-21T04:02:35.932Z,0.60
2023-02-21T04:05:15.829Z,0.68
2023-02-21T04:08:12.041Z,0.50
2023-02-21T04:10:52.556Z,0.50
2023-02-21T04:13:35.364Z,0.40
2023-02-21T04:16:06.185Z,0.40
2023-02-21T04:18:57.533Z,0.40
2023-02-21T04:21:53.638Z,0.40
2023-02-21T04:24:30.718Z,0.55
2023-02-21T04:27:00.056Z,0.57
2023-02-21T04:29:33.255Z,0.80
2023-02-21T04:32:05.760Z,0.57
2023-02-21T04:34:36.152Z,0.40
2023-02-21T04:37:05.462Z,0.93
2023-02-21T04:39:35.026Z,0.63
2023-02-21T04:42:09.618Z,0.50
2023-02-21T04:44:40.336Z,0.52
2023-02-21T04:47:12.449Z,1.08
2023-02-21T04:49:41.571Z,1.08
2023-02-21T04:52:14.094Z,0.50
2023-02-21T04:54:52.368Z,0.50
2023-02-21T04:57:23.937Z,0.60
2023-02-21T05:00:02.315Z,2.70
2023-02-21T05:02:32.071Z,2.95
2023-02-21T05:05:02.322Z,0.50
2023-02-21T05:07:32.068Z,0.40
2023-02-21T05:10:13.719Z,0.88
2023-02-21T05:12:45.325Z,0.60
2023-02-21T05:15:15.558Z,0.40
2023-02-21T05:17:48.156Z,0.93
2023-02-21T05:20:21.025Z,0.50
2023-02-21T05:22:55.953Z,0.40
2023-02-21T05:25:26.960Z,0.50
2023-02-21T05:27:56.179Z,0.40
2023-02-21T05:30:25.986Z,0.40
2023-02-21T05:32:55.217Z,0.40
2023-02-21T05:35:24.122Z,0.40
2023-02-21T05:37:53.495Z,0.40
2023-02-21T05:40:23.140Z,0.40
2023-02-21T05:42:52.259Z,0.47
2023-02-21T05:45:22.469Z,2.55
2023-02-21T05:47:51.400Z,1.88
2023-02-21T05:50:20.393Z,0.30
2023-02-21T05:52:49.385Z,0.47
2023-02-21T05:55:18.526Z,1.10
2023-02-21T05:57:48.243Z,0.40
2023-02-21T06:00:26.161Z,1.75
2023-02-21T06:02:56.465Z,0.40
2023-02-21T06:05:25.528Z,1.95
2023-02-21T06:07:57.351Z,0.90
2023-02-21T06:10:26.863Z,1.67
2023-02-21T06:12:55.843Z,0.50
2023-02-21T06:15:34.017Z,4.75
2023-02-21T06:18:02.988Z,1.38
2023-02-21T06:20:31.880Z,1.98
2023-02-21T06:23:03.931Z,2.47
2023-02-21T06:25:33.238Z,0.98
2023-02-21T06:28:03.108Z,2.22
2023-02-21T06:30:32.212Z,1.85
2023-02-21T06:33:01.198Z,1.45
2023-02-21T06:35:30.421Z,1.63
2023-02-21T06:37:59.537Z,0.60
2023-02-21T06:40:29.325Z,1.15
2023-02-21T06:43:04.056Z,2.00
2023-02-21T06:45:33.019Z,1.08
2023-02-21T06:48:03.140Z,1.65
2023-02-21T06:50:41.161Z,1.25
2023-02-21T06:53:12.579Z,0.82
2023-02-21T06:55:47.345Z,1.38
2023-02-21T06:58:16.303Z,2.20
2023-02-21T07:00:49.347Z,1.67
2023-02-21T07:03:18.347Z,2.05
2023-02-21T07:05:49.678Z,1.80
2023-02-21T07:08:18.956Z,2.30
2023-02-21T07:10:50.362Z,2.75
2023-02-21T07:13:21.490Z,2.08
2023-02-21T07:15:52.066Z,3.67
2023-02-21T07:18:21.655Z,1.35
2023-02-21T07:20:52.074Z,3.00
2023-02-21T07:23:21.079Z,2.50
2023-02-21T07:25:56.365Z,2.03
2023-02-21T07:28:25.499Z,6.43
2023-02-21T07:30:54.454Z,3.55
2023-02-21T07:33:25.494Z,3.85
2023-02-21T07:35:55.191Z,6.05
2023-02-21T07:38:26.575Z,5.05
2023-02-21T07:41:00.112Z,1.70
2023-02-21T07:43:31.645Z,3.85
2023-02-21T07:46:01.068Z,2.17
2023-02-21T07:48:30.169Z,2.95
2023-02-21T07:50:59.907Z,3.35
2023-02-21T07:53:29.167Z,5.15
2023-02-21T07:55:58.309Z,2.42
2023-02-21T07:58:28.173Z,7.35
2023-02-21T08:01:02.134Z,4.03
2023-02-21T08:03:31.781Z,4.85
2023-02-21T08:06:01.917Z,7.13
2023-02-21T08:08:31.199Z,7.05
2023-02-21T08:11:00.153Z,4.35
2023-02-21T08:13:29.211Z,5.32
2023-02-21T08:15:58.315Z,7.57
2023-02-21T08:18:30.728Z,6.13
2023-02-21T08:20:59.689Z,7.88
2023-02-21T08:23:29.072Z,6.22
2023-02-21T08:26:00.626Z,5.80
2023-02-21T08:28:29.985Z,7.85
2023-02-21T08:31:02.221Z,7.25
2023-02-21T08:33:34.273Z,5.90
2023-02-21T08:36:04.089Z,6.57
2023-02-21T08:38:33.252Z,6.35
2023-02-21T08:41:03.703Z,4.75
2023-02-21T08:43:33.318Z,10.43
2023-02-21T08:46:05.712Z,5.15
2023-02-21T08:48:34.691Z,8.13
2023-02-21T08:51:07.956Z,10.68
2023-02-21T08:53:38.020Z,7.93
2023-02-21T08:56:07.167Z,5.85
2023-02-21T08:58:37.948Z,6.50
2023-02-21T09:01:07.334Z,9.23
2023-02-21T09:03:36.256Z,9.00
2023-02-21T09:06:05.506Z,11.75
2023-02-21T09:08:34.911Z,6.55
2023-02-21T09:11:07.108Z,10.45
2023-02-21T09:13:42.650Z,8.38
2023-02-21T09:16:13.717Z,8.00
2023-02-21T09:18:42.776Z,9.15
2023-02-21T09:21:11.748Z,9.23
2023-02-21T09:23:40.757Z,6.88
2023-02-21T09:26:09.881Z,8.05
2023-02-21T09:28:44.216Z,6.10
2023-02-21T09:31:28.075Z,8.93
2023-02-21T09:33:59.687Z,7.75
2023-02-21T09:36:28.911Z,8.35
2023-02-21T09:38:59.124Z,5.78
2023-02-21T09:41:29.789Z,7.75
2023-02-21T09:43:59.028Z,8.70
2023-02-21T09:46:48.777Z,10.35
2023-02-21T09:49:47.963Z,7.88
2023-02-21T09:52:27.083Z,9.32
2023-02-21T09:55:02.968Z,10.30
2023-02-21T09:57:32.084Z,9.38
2023-02-21T10:00:00.998Z,12.02
2023-02-21T10:02:41.602Z,8.80
2023-02-21T10:05:49.387Z,7.93
2023-02-21T10:08:31.024Z,13.73
2023-02-21T10:11:08.654Z,12.75
2023-02-21T10:13:43.946Z,10.32
2023-02-21T10:16:22.546Z,10.48
2023-02-21T10:18:58.011Z,12.43
2023-02-21T10:22:04.441Z,11.30
2023-02-21T10:24:34.857Z,15.55
2023-02-21T10:27:16.574Z,12.45
2023-02-21T10:30:00.668Z,10.20
2023-02-21T10:32:29.972Z,14.20
2023-02-21T10:35:00.296Z,11.73
2023-02-21T10:37:43.771Z,10.48
2023-02-21T10:40:34.666Z,9.63
2023-02-21T10:43:15.078Z,9.00
2023-02-21T10:45:55.103Z,9.60
2023-02-21T10:48:29.907Z,9.10
2023-02-21T10:51:11.628Z,12.00
2023-02-21T10:53:43.802Z,9.18
2023-02-21T10:56:19.435Z,6.65
2023-02-21T10:58:56.115Z,8.40
2023-02-21T11:01:30.213Z,10.77
2023-02-21T11:04:08.988Z,8.75
2023-02-21T11:06:45.585Z,5.90
2023-02-21T11:09:36.301Z,9.20
2023-02-21T11:12:24.180Z,12.23
2023-02-21T11:14:54.224Z,10.73
2023-02-21T11:17:31.755Z,12.90
2023-02-21T11:20:08.686Z,8.30
2023-02-21T11:22:47.906Z,12.07
2023-02-21T11:25:31.082Z,11.40
2023-02-21T11:28:15.316Z,7.75
2023-02-21T11:31:10.182Z,13.07
2023-02-21T11:33:42.465Z,5.93
2023-02-21T11:36:18.318Z,11.68
2023-02-21T11:39:28.856Z,14.65
2023-02-21T11:42:08.740Z,10.52
2023-02-21T11:44:40.780Z,10.68
2023-02-21T11:47:29.315Z,10.55
2023-02-21T11:50:22.113Z,11.73
2023-02-21T11:53:19.900Z,7.75
2023-02-21T11:55:58.975Z,11.73
2023-02-21T11:58:31.516Z,14.27
2023-02-21T12:01:16.162Z,13.65
2023-02-21T12:04:06.586Z,12.32
2023-02-21T12:07:16.136Z,11.60
2023-02-21T12:10:24.156Z,17.42
2023-02-21T12:13:18.307Z,8.98
2023-02-21T12:15:55.942Z,13.38
2023-02-21T12:18:51.664Z,11.18
2023-02-21T12:21:33.742Z,9.88
2023-02-21T12:24:26.903Z,8.73
2023-02-21T12:27:31.425Z,11.52
2023-02-21T12:30:27.832Z,11.45
2023-02-21T12:33:32.135Z,13.30
2023-02-21T12:36:18.499Z,12.02
2023-02-21T12:39:05.753Z,14.13
2023-02-21T12:44:40.955Z,10.40
2023-02-21T12:47:40.592Z,9.80
2023-02-21T12:50:41.701Z,9.05
2023-02-21T12:53:27.449Z,15.40
2023-02-21T12:56:13.642Z,12.07
2023-02-21T12:59:17.209Z,7.68
2023-02-21T13:01:53.528Z,10.63
2023-02-21T13:04:46.134Z,7.13
2023-02-21T13:07:45.843Z,8.25
2023-02-21T13:10:31.240Z,8.18
2023-02-21T13:13:16.595Z,13.00
2023-02-21T13:15:48.540Z,8.82
2023-02-21T13:18:29.515Z,8.43
2023-02-21T13:21:08.867Z,14.52
2023-02-21T13:23:57.320Z,12.48
2023-02-21T13:26:32.311Z,9.48
2023-02-21T13:29:01.473Z,13.73
2023-02-21T13:31:40.109Z,8.73
2023-02-21T13:34:12.423Z,11.80
2023-02-21T13:36:44.248Z,8.25
2023-02-21T13:39:37.344Z,7.72
2023-02-21T13:42:11.368Z,7.82
2023-02-21T13:44:54.542Z,10.73
2023-02-21T13:47:24.834Z,11.73
2023-02-21T13:49:59.143Z,11.00
2023-02-21T13:52:50.101Z,15.80
2023-02-21T13:55:19.483Z,9.18
2023-02-21T13:57:58.913Z,12.80
2023-02-21T14:00:28.412Z,16.15
2023-02-21T14:03:18.912Z,10.90
2023-02-21T14:05:48.384Z,10.25
2023-02-21T14:08:24.900Z,11.38
2023-02-21T14:10:59.080Z,13.18
2023-02-21T14:13:30.876Z,14.57
2023-02-21T14:16:28.562Z,8.25
2023-02-21T14:19:10.538Z,12.00
2023-02-21T14:21:47.374Z,16.80
2023-02-21T14:24:33.308Z,15.10
2023-02-21T14:30:06.168Z,12.57
2023-02-21T14:32:40.719Z,13.48
2023-02-21T14:35:27.290Z,14.93
2023-02-21T14:38:03.738Z,21.27
2023-02-21T14:40:55.915Z,10.98
2023-02-21T14:43:42.619Z,16.90
2023-02-21T14:46:14.205Z,15.00
2023-02-21T14:49:10.640Z,15.57
2023-02-21T14:51:58.749Z,15.25
2023-02-21T14:55:07.975Z,9.05
2023-02-21T14:58:17.777Z,13.60
2023-02-21T15:01:10.492Z,11.98
2023-02-21T15:04:24.142Z,13.35
2023-02-21T15:07:25.959Z,10.93
2023-02-21T15:10:25.874Z,14.55
2023-02-21T15:13:06.214Z,7.45
2023-02-21T15:15:39.876Z,13.43
2023-02-21T15:18:12.605Z,14.40
2023-02-21T15:21:19.269Z,10.35
2023-02-21T15:24:19.451Z,9.95
2023-02-21T15:26:48.462Z,11.25
2023-02-21T15:29:25.502Z,7.25
2023-02-21T15:31:58.067Z,11.57
2023-02-21T15:34:43.508Z,15.95
2023-02-21T15:37:22.934Z,10.95
2023-02-21T15:40:13.014Z,10.45
2023-02-21T15:42:50.479Z,10.55
2023-02-21T15:45:57.445Z,9.43
2023-02-21T15:48:30.188Z,12.60
2023-02-21T15:51:07.121Z,10.13
2023-02-21T15:53:36.310Z,13.60
2023-02-21T15:56:47.388Z,11.00
2023-02-21T15:59:28.059Z,8.50
2023-02-21T16:02:29.293Z,12.00
2023-02-21T16:04:59.423Z,10.88
2023-02-21T16:07:36.363Z,10.85
2023-02-21T16:10:15.644Z,7.03
2023-02-21T16:12:55.323Z,5.60
2023-02-21T16:15:32.934Z,9.98
2023-02-21T16:18:19.652Z,6.68
2023-02-21T16:21:02.964Z,13.07
2023-02-21T16:23:39.397Z,10.77
2023-02-21T16:26:15.170Z,10.35
2023-02-21T16:28:45.820Z,10.73
2023-02-21T16:31:26.134Z,9.57
2023-02-21T16:33:55.766Z,9.98
2023-02-21T16:36:30.895Z,8.02
2023-02-21T16:39:00.690Z,8.85
2023-02-21T16:41:37.837Z,11.18
2023-02-21T16:44:07.916Z,11.75
2023-02-21T16:46:37.074Z,10.60
2023-02-21T16:49:06.212Z,6.97
2023-02-21T16:51:47.194Z,9.73
2023-02-21T16:54:24.960Z,8.93
2023-02-21T16:57:11.055Z,9.30
2023-02-21T16:59:41.341Z,9.45
2023-02-21T17:02:28.482Z,5.97
2023-02-21T17:08:27.351Z,6.25
2023-02-21T17:11:03.586Z,8.38
2023-02-21T17:13:46.553Z,5.80
2023-02-21T17:16:23.645Z,9.43
2023-02-21T17:19:25.382Z,4.00
2023-02-21T17:21:59.096Z,4.30
2023-02-21T17:24:36.491Z,6.18
2023-02-21T17:27:34.266Z,7.18
2023-02-21T17:30:08.646Z,4.28
2023-02-21T17:32:44.806Z,6.30
2023-02-21T17:35:31.180Z,3.03
2023-02-21T17:38:06.840Z,5.75
2023-02-21T17:40:42.082Z,4.43
2023-02-21T17:43:14.050Z,3.47
2023-02-21T17:45:49.794Z,6.40
2023-02-21T17:48:23.600Z,3.53
2023-02-21T17:50:52.778Z,4.07
2023-02-21T17:53:31.254Z,5.30
2023-02-21T17:56:04.447Z,6.72
2023-02-21T17:58:39.286Z,7.88
2023-02-21T18:01:15.467Z,6.15
2023-02-21T18:03:45.530Z,8.82
2023-02-21T18:06:16.308Z,8.27
2023-02-21T18:08:48.367Z,4.68
2023-02-21T18:11:19.765Z,6.80
2023-02-21T18:13:56.471Z,9.20
2023-02-21T18:16:29.180Z,6.72
2023-02-21T18:19:00.620Z,5.38
2023-02-21T18:21:32.960Z,7.13
2023-02-21T18:24:04.223Z,8.60
2023-02-21T18:26:35.031Z,5.70
2023-02-21T18:29:12.394Z,11.93
2023-02-21T18:31:43.739Z,6.40
2023-02-21T18:34:17.748Z,10.20
2023-02-21T18:36:57.823Z,6.15
2023-02-21T18:39:27.591Z,9.73
2023-02-21T18:42:04.682Z,10.95
2023-02-21T18:44:36.915Z,6.93
2023-02-21T18:47:19.461Z,7.20
2023-02-21T18:49:51.931Z,6.32
2023-02-21T18:52:28.710Z,12.43
2023-02-21T18:55:04.083Z,11.13
2023-02-21T18:57:33.527Z,7.55
2023-02-21T19:00:09.522Z,6.70
2023-02-21T19:02:41.235Z,9.20
2023-02-21T19:05:26.796Z,14.55
2023-02-21T19:07:56.832Z,4.82
2023-02-21T19:10:34.519Z,11.48
2023-02-21T19:13:11.102Z,7.13
2023-02-21T19:15:44.707Z,8.25
2023-02-21T19:18:14.102Z,8.43
2023-02-21T19:20:44.506Z,9.10
2023-02-21T19:23:20.108Z,7.57
2023-02-21T19:25:52.267Z,5.53
2023-02-21T19:28:32.407Z,6.93
2023-02-21T19:31:05.200Z,7.53
2023-02-21T19:33:34.949Z,9.68
2023-02-21T19:36:13.032Z,12.77
2023-02-21T19:38:42.511Z,7.18
2023-02-21T19:41:15.663Z,7.65
2023-02-21T19:43:52.647Z,12.60
2023-02-21T19:46:29.168Z,8.52
2023-02-21T19:48:58.288Z,6.45
2023-02-21T19:51:29.921Z,17.08
2023-02-21T19:54:31.708Z,10.73
2023-02-21T19:57:04.059Z,9.20
2023-02-21T19:59:38.226Z,5.85
2023-02-21T20:02:13.202Z,8.95
2023-02-21T20:04:51.463Z,9.27
2023-02-21T20:07:24.917Z,10.75
2023-02-21T20:10:01.608Z,10.07
2023-02-21T20:12:32.759Z,8.60
2023-02-21T20:15:14.789Z,6.38
2023-02-21T20:17:43.960Z,9.88
2023-02-21T20:20:27.277Z,9.15
2023-02-21T20:22:59.391Z,9.73
2023-02-21T20:25:48.428Z,6.78
2023-02-21T20:28:21.748Z,14.60
2023-02-21T20:30:50.943Z,10.05
2023-02-21T20:33:21.559Z,8.70
2023-02-21T20:35:53.437Z,7.47
2023-02-21T20:38:28.484Z,5.80
2023-02-21T20:40:59.577Z,9.38
2023-02-21T20:44:09.724Z,6.43
2023-02-21T20:47:18.120Z,7.32
2023-02-21T20:50:33.502Z,17.83
2023-02-21T20:53:03.391Z,6.60
2023-02-21T20:55:34.928Z,5.03
2023-02-21T20:58:05.715Z,5.00
2023-02-21T21:00:37.159Z,6.03
2023-02-21T21:03:12.938Z,7.65
2023-02-21T21:05:43.444Z,9.43
2023-02-21T21:08:15.612Z,5.35
2023-02-21T21:10:49.295Z,9.60
2023-02-21T21:13:18.544Z,6.32
2023-02-21T21:15:50.799Z,9.45
2023-02-21T21:18:26.152Z,11.68
2023-02-21T21:20:58.237Z,6.60
2023-02-21T21:23:27.175Z,3.40
2023-02-21T21:26:10.807Z,6.97
2023-02-21T21:29:10.143Z,9.30
2023-02-21T21:31:53.712Z,4.57
2023-02-21T21:35:10.806Z,3.53
2023-02-21T21:37:52.107Z,6.82
2023-02-21T21:40:27.875Z,7.97
2023-02-21T21:43:48.509Z,6.90
2023-02-21T21:46:19.181Z,7.72
2023-02-21T21:48:48.755Z,5.65
2023-02-21T21:51:19.172Z,4.32
2023-02-21T21:53:54.764Z,7.70
2023-02-21T21:56:42.406Z,3.70
2023-02-21T21:59:14.480Z,4.13
2023-02-21T22:02:05.487Z,5.70
2023-02-21T22:04:39.430Z,4.47
2023-02-21T22:07:12.511Z,6.50
2023-02-21T22:12:38.597Z,5.85
2023-02-21T22:15:15.475Z,6.03
2023-02-21T22:17:51.854Z,3.42
2023-02-21T22:20:31.896Z,4.00
2023-02-21T22:23:09.488Z,7.90
2023-02-21T22:26:17.436Z,2.72
2023-02-21T22:28:55.789Z,4.05
2023-02-21T22:32:05.408Z,4.07
2023-02-21T22:34:50.814Z,3.72
2023-02-21T22:37:37.763Z,2.97
2023-02-21T22:44:19.063Z,5.85
2023-02-21T22:47:02.892Z,3.80
2023-02-21T22:49:32.224Z,3.63
2023-02-21T22:52:08.539Z,6.80
2023-02-21T22:54:37.934Z,4.75
2023-02-21T22:57:13.761Z,4.35
2023-02-21T22:59:59.304Z,4.97
2023-02-21T23:02:31.586Z,6.70
2023-02-21T23:05:12.347Z,5.93
2023-02-21T23:07:42.592Z,2.90
2023-02-21T23:10:17.589Z,5.07
2023-02-21T23:12:49.720Z,5.35
2023-02-21T23:15:23.222Z,4.18
2023-02-21T23:17:52.973Z,3.63
2023-02-21T23:20:36.152Z,5.10
2023-02-21T23:23:06.137Z,4.10
2023-02-21T23:25:38.921Z,4.85
2023-02-21T23:28:16.661Z,4.40
2023-02-21T23:30:46.944Z,4.95
2023-02-21T23:33:23.794Z,3.72
2023-02-21T23:35:54.363Z,4.40
2023-02-21T23:38:25.527Z,6.07
2023-02-21T23:40:59.348Z,3.95
2023-02-21T23:43:31.408Z,2.45
2023-02-21T23:46:03.948Z,5.78
2023-02-21T23:48:34.645Z,3.65
2023-02-21T23:51:03.692Z,3.33
2023-02-21T23:53:34.570Z,2.97
2023-02-21T23:56:03.713Z,3.17
2023-02-21T23:58:33.493Z,1.17
